createdAt,value
2023-03-26T00:10:14.599Z,58.59
2023-03-26T00:11:14.657Z,58.32
2023-03-26T00:12:15.573Z,58.83
2023-03-26T00:17:15.034Z,56.45
2023-03-26T00:18:15.075Z,53.37
2023-03-26T00:19:15.142Z,53.26
2023-03-26T00:20:15.213Z,56.16
2023-03-26T00:21:15.305Z,47.87
2023-03-26T00:22:15.331Z,48.75
2023-03-26T00:23:15.399Z,46.94
2023-03-26T00:24:15.599Z,44.30
2023-03-26T00:25:15.528Z,45.86
2023-03-26T00:26:15.587Z,47.37
2023-03-26T00:27:15.636Z,44.49
2023-03-26T00:28:15.682Z,41.80
2023-03-26T00:29:15.731Z,42.41
2023-03-26T00:30:15.787Z,44.03
2023-03-26T00:31:15.866Z,43.91
2023-03-26T00:32:15.925Z,45.31
2023-03-26T00:33:15.935Z,43.71
2023-03-26T00:34:16.051Z,44.34
2023-03-26T00:35:16.048Z,40.37
2023-03-26T00:36:16.097Z,39.73
2023-03-26T00:37:16.098Z,39.11
2023-03-26T00:38:16.149Z,29.51
2023-03-26T00:39:16.217Z,28.55
2023-03-26T00:40:16.260Z,30.86
2023-03-26T00:41:16.315Z,30.95
2023-03-26T00:42:16.348Z,30.02
2023-03-26T00:43:16.418Z,30.72
2023-03-26T00:44:16.499Z,30.84
2023-03-26T00:45:16.583Z,34.13
2023-03-26T00:46:16.642Z,34.85
2023-03-26T00:47:16.673Z,36.94
2023-03-26T00:48:16.760Z,33.76
2023-03-26T00:49:16.767Z,36.80
2023-03-26T00:50:16.843Z,39.26
2023-03-26T00:51:16.884Z,40.86
2023-03-26T00:52:16.943Z,42.39
2023-03-26T00:53:16.960Z,44.62
2023-03-26T00:54:17.051Z,43.34
2023-03-26T00:55:17.088Z,45.48
2023-03-26T00:56:17.186Z,45.72
2023-03-26T00:57:28.966Z,43.57
2023-03-26T00:58:18.251Z,43.40
2023-03-26T01:03:26.781Z,31.11
2023-03-26T01:07:17.340Z,31.68
2023-03-26T01:08:17.355Z,30.69
2023-03-26T01:11:17.390Z,25.00
2023-03-26T01:12:17.392Z,25.00
2023-03-26T01:13:17.418Z,25.96
2023-03-26T01:14:17.433Z,25.00
2023-03-26T01:15:17.431Z,25.53
2023-03-26T01:16:17.517Z,27.11
2023-03-26T01:17:17.481Z,25.88
2023-03-26T01:18:17.515Z,28.55
2023-03-26T01:19:17.574Z,27.55
2023-03-26T01:20:17.589Z,28.78
2023-03-26T01:21:17.613Z,26.91
2023-03-26T01:22:17.646Z,29.65
2023-03-26T01:23:17.694Z,34.07
2023-03-26T01:24:17.730Z,35.15
2023-03-26T01:25:17.782Z,30.02
2023-03-26T01:26:17.803Z,28.18
2023-03-26T01:27:17.910Z,28.02
2023-03-26T01:28:17.868Z,30.69
2023-03-26T01:29:17.853Z,32.71
2023-03-26T01:30:17.937Z,32.21
2023-03-26T01:31:17.954Z,33.67
2023-03-26T01:32:18.057Z,33.88
2023-03-26T01:33:18.102Z,34.30
2023-03-26T01:34:18.076Z,34.95
2023-03-26T01:35:18.131Z,36.04
2023-03-26T01:36:18.191Z,36.77
2023-03-26T01:37:18.234Z,36.95
2023-03-26T01:38:18.316Z,35.98
2023-03-26T01:39:18.303Z,37.89
2023-03-26T01:40:18.389Z,37.47
2023-03-26T01:41:18.425Z,37.55
2023-03-26T01:42:18.483Z,39.19
2023-03-26T01:43:18.535Z,37.86
2023-03-26T01:44:18.564Z,34.56
2023-03-26T01:45:18.629Z,33.59
2023-03-26T01:46:18.652Z,31.13
2023-03-26T01:47:18.673Z,31.59
2023-03-26T01:48:18.712Z,32.55
2023-03-26T01:49:18.783Z,34.06
2023-03-26T01:50:18.834Z,35.84
2023-03-26T01:51:18.868Z,35.42
2023-03-26T01:52:18.949Z,35.17
2023-03-26T01:53:18.953Z,27.52
2023-03-26T01:54:18.996Z,29.37
2023-03-26T01:55:19.030Z,29.03
2023-03-26T01:56:19.085Z,26.56
2023-03-26T01:57:19.113Z,29.23
2023-03-26T01:58:19.166Z,28.16
2023-03-26T01:59:19.182Z,29.55
2023-03-26T02:00:19.231Z,31.11
2023-03-26T02:01:19.260Z,29.54
2023-03-26T02:02:19.401Z,30.96
2023-03-26T02:03:19.432Z,31.18
2023-03-26T02:04:19.356Z,32.83
2023-03-26T02:05:19.401Z,32.05
2023-03-26T02:06:19.477Z,31.27
2023-03-26T02:07:19.531Z,33.94
2023-03-26T02:08:19.566Z,33.50
2023-03-26T02:09:19.580Z,33.46
2023-03-26T02:10:19.600Z,32.14
2023-03-26T02:11:20.080Z,34.75
2023-03-26T02:12:19.728Z,37.07
2023-03-26T02:13:19.800Z,37.59
2023-03-26T02:14:19.816Z,37.37
2023-03-26T02:15:19.857Z,38.50
2023-03-26T02:16:19.932Z,40.19
2023-03-26T02:17:19.949Z,42.95
2023-03-26T02:18:20.014Z,43.03
2023-03-26T02:19:20.267Z,42.97
2023-03-26T02:32:20.686Z,44.55
2023-03-26T02:33:20.731Z,42.51
2023-03-26T02:34:20.769Z,42.88
2023-03-26T02:35:20.999Z,39.89
2023-03-26T02:36:20.930Z,43.90
2023-03-26T02:37:20.915Z,42.28
2023-03-26T02:38:20.959Z,41.24
2023-03-26T02:39:21.057Z,40.41
2023-03-26T02:40:21.035Z,40.37
2023-03-26T02:41:21.112Z,40.85
2023-03-26T02:42:21.205Z,41.77
2023-03-26T02:43:21.216Z,43.28
2023-03-26T02:44:21.283Z,43.59
2023-03-26T02:45:21.317Z,44.92
2023-03-26T02:46:21.365Z,47.44
2023-03-26T02:47:21.367Z,48.52
2023-03-26T02:48:21.409Z,51.45
2023-03-26T02:49:21.401Z,53.97
2023-03-26T02:50:21.447Z,54.91
2023-03-26T02:51:21.488Z,58.25
2023-03-26T02:52:21.537Z,59.37
2023-03-26T02:53:21.562Z,61.40
2023-03-26T02:54:21.618Z,62.46
2023-03-26T02:55:21.659Z,64.71
2023-03-26T02:56:21.660Z,63.68
2023-03-26T02:57:21.722Z,65.52
2023-03-26T02:58:21.750Z,65.79
2023-03-26T03:00:21.823Z,66.33
2023-03-26T03:01:21.980Z,68.04
2023-03-26T03:02:21.974Z,69.10
2023-03-26T03:03:22.077Z,71.54
2023-03-26T03:04:22.029Z,73.72
2023-03-26T03:05:22.087Z,75.41
2023-03-26T03:07:22.201Z,77.76
2023-03-26T03:08:22.261Z,79.99
2023-03-26T03:09:22.287Z,82.20
2023-03-26T03:10:22.319Z,84.50
2023-03-26T03:11:22.345Z,84.71
2023-03-26T03:12:22.361Z,85.58
2023-03-26T03:13:22.414Z,89.89
2023-03-26T03:14:22.474Z,90.43
2023-03-26T03:15:22.502Z,93.44
2023-03-26T03:16:22.554Z,92.59
2023-03-26T03:17:22.553Z,96.35
2023-03-26T03:18:22.602Z,97.68
2023-03-26T03:19:22.619Z,100.59
2023-03-26T03:20:22.675Z,102.19
2023-03-26T03:21:22.761Z,103.04
2023-03-26T03:27:22.914Z,113.93
2023-03-26T03:28:22.905Z,115.38
2023-03-26T03:29:22.958Z,115.71
2023-03-26T03:30:22.964Z,118.47
2023-03-26T03:31:23.097Z,119.32
2023-03-26T03:32:23.103Z,119.95
2023-03-26T03:33:23.064Z,120.09
2023-03-26T03:34:23.128Z,121.90
2023-03-26T03:35:23.197Z,122.10
2023-03-26T03:36:23.164Z,123.59
2023-03-26T03:37:23.211Z,125.20
2023-03-26T03:38:23.254Z,125.24
2023-03-26T03:39:23.300Z,127.53
2023-03-26T03:40:23.336Z,128.59
2023-03-26T03:52:23.721Z,140.12
2023-03-26T03:53:23.727Z,140.99
2023-03-26T03:54:23.757Z,142.92
2023-03-26T03:55:23.767Z,143.36
2023-03-26T03:56:23.807Z,142.88
2023-03-26T03:57:23.858Z,143.10
2023-03-26T03:58:23.901Z,143.34
2023-03-26T03:59:23.930Z,143.69
2023-03-26T04:00:23.958Z,145.39
2023-03-26T04:01:23.997Z,146.60
2023-03-26T04:12:24.289Z,159.35
2023-03-26T04:13:24.337Z,158.11
2023-03-26T04:14:24.359Z,160.75
2023-03-26T04:15:24.384Z,160.64
2023-03-26T04:16:24.413Z,161.79
2023-03-26T04:17:24.530Z,161.62
2023-03-26T04:18:24.445Z,162.71
2023-03-26T04:19:24.542Z,163.04
2023-03-26T04:20:24.550Z,164.48
2023-03-26T04:21:24.600Z,164.69
2023-03-26T04:22:24.637Z,165.92
2023-03-26T04:23:24.715Z,165.34
2023-03-26T04:24:24.725Z,165.38
2023-03-26T04:25:24.742Z,166.33
2023-03-26T04:26:24.777Z,164.81
2023-03-26T04:27:24.768Z,166.28
2023-03-26T04:28:24.813Z,166.50
2023-03-26T04:29:24.836Z,168.25
2023-03-26T04:30:24.867Z,168.03
2023-03-26T04:31:25.117Z,167.78
2023-03-26T04:32:24.965Z,168.46
2023-03-26T04:33:24.967Z,168.82
2023-03-26T04:34:24.995Z,169.83
2023-03-26T04:35:25.074Z,169.86
2023-03-26T04:36:25.062Z,171.01
2023-03-26T04:45:25.367Z,167.55
2023-03-26T04:46:25.449Z,169.42
2023-03-26T04:47:25.407Z,169.30
2023-03-26T04:48:25.415Z,167.58
2023-03-26T04:49:25.450Z,168.42
2023-03-26T04:50:25.465Z,169.03
2023-03-26T04:51:25.496Z,167.63
2023-03-26T04:52:25.541Z,168.92
2023-03-26T04:56:25.648Z,169.94
2023-03-26T04:57:25.676Z,171.31
2023-03-26T04:58:25.699Z,171.83
2023-03-26T04:59:25.686Z,171.48
2023-03-26T05:00:25.753Z,172.56
2023-03-26T05:01:25.788Z,173.89
2023-03-26T05:02:25.806Z,172.20
2023-03-26T05:03:25.805Z,170.52
2023-03-26T05:04:25.886Z,169.98
2023-03-26T05:05:25.885Z,167.54
2023-03-26T05:06:25.919Z,166.42
2023-03-26T05:07:25.934Z,166.12
2023-03-26T05:08:25.951Z,164.61
2023-03-26T05:09:26.004Z,165.30
2023-03-26T05:10:26.050Z,166.04
2023-03-26T05:11:26.110Z,165.04
2023-03-26T05:12:26.080Z,164.66
2023-03-26T05:13:26.141Z,166.45
2023-03-26T05:14:26.174Z,164.95
2023-03-26T05:15:26.211Z,165.96
2023-03-26T05:16:26.318Z,167.04
2023-03-26T05:17:26.313Z,169.36
2023-03-26T05:18:26.320Z,168.00
2023-03-26T05:19:26.334Z,166.94
2023-03-26T05:20:26.432Z,169.31
2023-03-26T05:21:26.420Z,169.52
2023-03-26T05:22:26.426Z,171.82
2023-03-26T05:23:26.499Z,171.55
2023-03-26T05:24:26.507Z,172.58
2023-03-26T05:25:26.528Z,173.04
2023-03-26T05:26:26.580Z,172.87
2023-03-26T05:27:26.619Z,173.38
2023-03-26T05:28:26.690Z,174.55
2023-03-26T05:29:26.688Z,175.54
2023-03-26T05:30:26.802Z,176.41
2023-03-26T05:31:26.814Z,176.90
2023-03-26T05:32:26.845Z,179.24
2023-03-26T05:33:26.968Z,178.38
2023-03-26T05:34:26.941Z,178.83
2023-03-26T05:35:26.930Z,181.43
2023-03-26T05:36:26.978Z,182.65
2023-03-26T05:37:27.032Z,184.08
2023-03-26T05:38:27.034Z,186.05
2023-03-26T05:39:27.099Z,187.52
2023-03-26T05:40:27.179Z,189.33
2023-03-26T05:46:27.399Z,197.44
2023-03-26T05:47:27.419Z,198.90
2023-03-26T05:48:27.441Z,200.79
2023-03-26T05:49:27.466Z,202.08
2023-03-26T05:50:27.526Z,203.60
2023-03-26T05:51:27.593Z,204.52
2023-03-26T05:52:27.596Z,203.86
2023-03-26T05:53:27.605Z,204.13
2023-03-26T05:54:27.638Z,204.22
2023-03-26T05:55:27.699Z,205.08
2023-03-26T05:56:27.727Z,205.16
2023-03-26T05:57:27.746Z,203.92
2023-03-26T05:58:27.769Z,203.13
2023-03-26T05:59:27.797Z,204.00
2023-03-26T06:14:28.226Z,199.12
2023-03-26T06:15:28.291Z,199.20
2023-03-26T06:16:28.618Z,199.52
2023-03-26T06:17:28.342Z,199.04
2023-03-26T06:18:28.375Z,199.15
2023-03-26T06:19:28.399Z,199.95
2023-03-26T06:20:28.443Z,199.32
2023-03-26T06:21:28.552Z,200.03
2023-03-26T06:22:28.601Z,200.08
2023-03-26T06:23:28.665Z,198.57
2023-03-26T06:24:28.747Z,198.36
2023-03-26T06:25:28.825Z,196.56
2023-03-26T06:26:28.887Z,196.93
2023-03-26T06:27:28.962Z,197.26
2023-03-26T06:28:29.002Z,197.19
2023-03-26T06:29:29.084Z,196.83
2023-03-26T06:30:29.148Z,197.32
2023-03-26T06:31:29.254Z,196.54
2023-03-26T06:32:29.302Z,195.54
2023-03-26T06:33:29.329Z,194.60
2023-03-26T06:34:29.342Z,193.61
2023-03-26T06:35:29.394Z,193.26
2023-03-26T06:36:29.433Z,191.17
2023-03-26T06:37:29.428Z,190.05
2023-03-26T06:38:29.485Z,190.19
2023-03-26T06:39:29.508Z,189.57
2023-03-26T06:40:29.543Z,189.40
2023-03-26T06:41:29.565Z,188.69
2023-03-26T06:43:08.174Z,188.45
2023-03-26T06:43:30.607Z,188.57
2023-03-26T06:45:29.609Z,189.57
2023-03-26T06:46:29.667Z,189.89
2023-03-26T06:47:29.673Z,191.80
2023-03-26T06:48:29.675Z,193.12
2023-03-26T06:53:29.679Z,186.27
2023-03-26T06:54:29.730Z,186.87
2023-03-26T06:57:29.688Z,186.03
2023-03-26T06:58:29.700Z,185.26
2023-03-26T06:59:29.750Z,181.67
2023-03-26T07:00:29.801Z,179.95
2023-03-26T07:01:29.889Z,177.78
2023-03-26T07:02:29.927Z,177.62
2023-03-26T07:03:29.893Z,174.34
2023-03-26T07:04:30.010Z,172.22
2023-03-26T07:05:29.982Z,173.38
2023-03-26T07:06:30.038Z,170.94
2023-03-26T07:07:30.104Z,171.58
2023-03-26T07:08:30.173Z,171.12
2023-03-26T07:09:30.179Z,168.54
2023-03-26T07:10:30.215Z,169.27
2023-03-26T07:11:30.215Z,166.68
2023-03-26T07:12:30.269Z,165.40
2023-03-26T07:13:30.280Z,165.69
2023-03-26T07:14:30.337Z,164.45
2023-03-26T07:15:30.378Z,162.82
2023-03-26T07:16:30.460Z,162.95
2023-03-26T07:17:30.537Z,160.53
2023-03-26T07:18:30.523Z,156.26
2023-03-26T07:19:30.623Z,151.58
2023-03-26T07:20:30.648Z,150.86
2023-03-26T07:21:30.730Z,147.38
2023-03-26T07:22:30.774Z,144.77
2023-03-26T07:23:30.840Z,146.03
2023-03-26T07:24:30.909Z,146.34
2023-03-26T07:25:30.926Z,148.34
2023-03-26T07:26:31.008Z,148.70
2023-03-26T07:27:31.041Z,156.79
2023-03-26T07:28:31.126Z,154.33
2023-03-26T07:29:31.162Z,152.53
2023-03-26T07:30:31.206Z,154.41
2023-03-26T07:31:31.312Z,151.02
2023-03-26T07:32:31.375Z,146.94
2023-03-26T07:33:31.364Z,146.51
2023-03-26T07:34:31.445Z,145.61
2023-03-26T07:35:31.521Z,146.72
2023-03-26T07:36:31.510Z,145.13
2023-03-26T07:37:31.582Z,149.35
2023-03-26T07:38:31.665Z,143.77
2023-03-26T07:39:31.673Z,139.65
2023-03-26T07:40:31.756Z,140.46
2023-03-26T07:41:31.823Z,144.14
2023-03-26T07:42:31.870Z,151.63
2023-03-26T07:43:31.955Z,150.57
2023-03-26T07:44:33.639Z,146.07
2023-03-26T07:45:32.075Z,141.21
2023-03-26T07:46:32.060Z,137.24
2023-03-26T07:47:32.097Z,133.59
2023-03-26T07:48:32.092Z,131.29
2023-03-26T07:50:32.096Z,118.97
2023-03-26T07:52:32.085Z,126.11
2023-03-26T08:00:32.119Z,113.14
2023-03-26T08:01:32.132Z,106.26
2023-03-26T08:02:32.140Z,110.87
2023-03-26T08:03:32.251Z,107.99
2023-03-26T08:04:32.240Z,112.01
2023-03-26T08:06:32.125Z,108.32
2023-03-26T08:07:32.169Z,106.46
2023-03-26T08:08:32.140Z,109.74
2023-03-26T08:09:32.164Z,105.89
2023-03-26T08:14:32.163Z,103.90
2023-03-26T08:20:32.208Z,97.01
2023-03-26T08:21:32.207Z,94.65
2023-03-26T08:24:32.223Z,81.28
2023-03-26T08:25:32.228Z,76.65
2023-03-26T08:29:32.218Z,70.84
2023-03-26T08:30:32.278Z,80.64
2023-03-26T08:31:32.407Z,77.12
2023-03-26T08:32:32.445Z,77.37
2023-03-26T08:33:32.461Z,68.80
2023-03-26T08:34:32.510Z,65.98
2023-03-26T08:35:32.580Z,64.18
2023-03-26T08:36:32.628Z,65.53
2023-03-26T08:37:32.632Z,66.80
2023-03-26T08:38:32.724Z,63.80
2023-03-26T08:39:32.783Z,63.02
2023-03-26T08:40:32.840Z,57.61
2023-03-26T08:41:32.926Z,54.83
2023-03-26T08:42:32.941Z,57.03
2023-03-26T08:43:32.979Z,62.24
2023-03-26T08:44:33.025Z,61.58
2023-03-26T08:45:33.093Z,59.34
2023-03-26T08:46:33.172Z,65.84
2023-03-26T08:47:33.294Z,71.47
2023-03-26T08:48:33.262Z,70.24
2023-03-26T08:49:33.321Z,62.28
2023-03-26T08:50:33.386Z,61.66
2023-03-26T08:51:33.403Z,64.08
2023-03-26T08:52:33.462Z,60.07
2023-03-26T08:53:33.517Z,60.77
2023-03-26T08:54:34.251Z,65.30
2023-03-26T08:58:33.785Z,54.73
2023-03-26T08:59:33.807Z,58.27
2023-03-26T09:00:33.883Z,60.78
2023-03-26T09:01:33.936Z,61.82
2023-03-26T09:02:34.008Z,58.95
2023-03-26T09:03:34.050Z,63.87
2023-03-26T09:04:34.120Z,57.74
2023-03-26T09:05:34.182Z,52.91
2023-03-26T09:06:34.173Z,54.46
2023-03-26T09:07:34.236Z,55.52
2023-03-26T09:08:34.289Z,47.03
2023-03-26T09:09:34.368Z,42.67
2023-03-26T09:10:34.406Z,40.83
2023-03-26T09:11:34.455Z,35.08
2023-03-26T09:12:34.492Z,38.01
2023-03-26T09:13:34.576Z,33.96
2023-03-26T09:14:34.631Z,38.32
2023-03-26T09:15:34.661Z,30.69
2023-03-26T09:16:34.761Z,31.13
2023-03-26T09:17:34.821Z,36.26
2023-03-26T09:18:34.830Z,34.77
2023-03-26T09:19:34.890Z,36.73
2023-03-26T09:20:34.948Z,35.78
2023-03-26T09:21:34.989Z,35.41
2023-03-26T09:22:35.060Z,38.62
2023-03-26T09:23:35.117Z,40.07
2023-03-26T09:24:35.159Z,36.96
2023-03-26T09:25:35.194Z,35.02
2023-03-26T09:26:35.272Z,34.23
2023-03-26T09:27:35.317Z,33.34
2023-03-26T09:28:35.394Z,36.57
2023-03-26T09:29:35.496Z,35.76
2023-03-26T09:30:35.478Z,41.97
2023-03-26T09:31:35.576Z,42.01
2023-03-26T09:32:35.638Z,46.88
2023-03-26T09:33:35.674Z,51.52
2023-03-26T09:34:35.724Z,55.21
2023-03-26T09:35:35.841Z,49.37
2023-03-26T09:36:35.808Z,52.92
2023-03-26T09:37:35.893Z,54.14
2023-03-26T09:38:36.891Z,52.93
2023-03-26T09:41:35.894Z,47.41
2023-03-26T09:42:35.937Z,50.22
2023-03-26T09:48:35.953Z,73.66
2023-03-26T09:49:35.949Z,68.40
2023-03-26T09:50:36.003Z,65.28
2023-03-26T09:51:36.068Z,63.26
2023-03-26T09:52:36.106Z,62.78
2023-03-26T09:53:36.163Z,65.20
2023-03-26T09:54:36.222Z,58.41
2023-03-26T09:55:36.270Z,60.64
2023-03-26T09:56:38.480Z,60.67
2023-03-26T09:57:36.372Z,61.90
2023-03-26T09:58:36.359Z,63.76
2023-03-26T09:59:36.401Z,61.11
2023-03-26T10:04:36.383Z,61.97
2023-03-26T10:05:36.343Z,64.92
2023-03-26T10:10:36.301Z,64.79
2023-03-26T10:11:36.317Z,70.43
2023-03-26T10:12:36.314Z,72.33
2023-03-26T10:13:36.339Z,79.62
2023-03-26T10:18:36.323Z,79.69
2023-03-26T10:19:36.333Z,73.58
2023-03-26T10:21:36.344Z,78.24
2023-03-26T10:24:36.323Z,77.69
2023-03-26T10:26:36.311Z,72.77
2023-03-26T10:27:36.324Z,78.77
2023-03-26T10:28:36.312Z,69.89
2023-03-26T10:33:36.332Z,73.02
2023-03-26T10:34:36.351Z,75.43
2023-03-26T10:35:36.385Z,79.61
2023-03-26T10:37:36.324Z,72.37
2023-03-26T10:41:36.309Z,70.80
2023-03-26T10:42:36.314Z,77.72
2023-03-26T10:43:36.388Z,77.75
2023-03-26T10:44:36.465Z,78.84
2023-03-26T10:45:36.491Z,77.52
2023-03-26T10:46:36.558Z,75.26
2023-03-26T10:47:36.624Z,76.93
2023-03-26T10:48:36.636Z,78.77
2023-03-26T10:49:36.712Z,71.66
2023-03-26T10:50:36.751Z,71.68
2023-03-26T10:51:36.782Z,75.84
2023-03-26T10:52:36.818Z,74.25
2023-03-26T10:53:36.882Z,75.59
2023-03-26T10:54:36.933Z,70.90
2023-03-26T10:55:36.982Z,68.83
2023-03-26T10:56:37.031Z,69.94
2023-03-26T10:57:37.107Z,72.08
2023-03-26T10:58:49.463Z,64.45
2023-03-26T10:59:38.136Z,64.57
2023-03-26T11:04:37.102Z,89.79
2023-03-26T11:05:37.218Z,93.26
2023-03-26T11:10:37.133Z,95.34
2023-03-26T11:11:37.198Z,96.97
2023-03-26T11:12:37.230Z,87.38
2023-03-26T11:13:37.282Z,84.16
2023-03-26T11:14:37.339Z,80.66
2023-03-26T11:15:37.410Z,81.20
2023-03-26T11:16:37.431Z,76.11
2023-03-26T11:17:39.412Z,78.38
2023-03-26T11:18:37.490Z,82.85
2023-03-26T11:25:37.470Z,75.29
2023-03-26T11:26:38.916Z,67.62
2023-03-26T11:31:37.509Z,72.11
2023-03-26T11:32:37.502Z,70.38
2023-03-26T11:33:37.496Z,77.41
2023-03-26T11:34:38.495Z,77.66
2023-03-26T11:37:37.477Z,76.04
2023-03-26T11:39:37.507Z,64.28
2023-03-26T11:40:37.504Z,56.04
2023-03-26T11:41:37.519Z,56.38
2023-03-26T11:48:37.592Z,97.02
2023-03-26T11:49:37.667Z,88.72
2023-03-26T11:50:37.715Z,83.02
2023-03-26T11:51:37.755Z,77.39
2023-03-26T11:52:37.827Z,75.07
2023-03-26T11:53:37.914Z,75.02
2023-03-26T11:54:37.935Z,76.21
2023-03-26T11:55:38.022Z,86.20
2023-03-26T11:56:38.073Z,82.42
2023-03-26T11:57:38.136Z,80.84
2023-03-26T11:58:38.144Z,81.43
2023-03-26T11:59:48.931Z,85.84
2023-03-26T12:00:39.171Z,86.06
2023-03-26T12:04:38.294Z,102.76
2023-03-26T12:05:38.209Z,98.07
2023-03-26T12:06:38.230Z,82.96
2023-03-26T12:08:38.202Z,74.86
2023-03-26T12:09:38.215Z,76.99
2023-03-26T12:10:38.524Z,86.10
2023-03-26T12:16:38.380Z,96.31
2023-03-26T12:17:38.428Z,89.56
2023-03-26T12:18:38.421Z,85.20
2023-03-26T12:19:38.447Z,82.65
2023-03-26T12:20:38.620Z,95.38
2023-03-26T12:21:38.588Z,104.91
2023-03-26T12:22:38.596Z,111.62
2023-03-26T12:23:38.697Z,122.44
2023-03-26T12:24:38.711Z,110.58
2023-03-26T12:25:38.904Z,111.78
2023-03-26T12:26:38.844Z,97.18
2023-03-26T12:27:38.924Z,77.90
2023-03-26T12:28:38.921Z,81.18
2023-03-26T12:29:39.022Z,78.93
2023-03-26T12:30:39.086Z,82.11
2023-03-26T12:31:39.167Z,86.36
2023-03-26T12:32:46.280Z,88.82
2023-03-26T12:33:40.192Z,84.75
2023-03-26T12:36:39.319Z,57.04
2023-03-26T12:37:39.207Z,55.02
2023-03-26T12:38:39.212Z,60.32
2023-03-26T12:44:53.470Z,98.91
2023-03-26T12:44:55.068Z,99.01
2023-03-26T12:45:40.296Z,98.98
2023-03-26T12:49:39.258Z,109.57
2023-03-26T12:50:39.275Z,101.57
2023-03-26T12:51:39.259Z,97.27
2023-03-26T12:52:39.266Z,88.47
2023-03-26T12:54:39.330Z,74.23
2023-03-26T12:55:39.321Z,73.23
2023-03-26T12:56:39.349Z,70.75
2023-03-26T12:57:39.362Z,74.91
2023-03-26T12:58:39.341Z,68.65
2023-03-26T12:59:39.363Z,75.01
2023-03-26T13:00:39.355Z,82.13
2023-03-26T13:01:39.392Z,81.56
2023-03-26T13:02:39.467Z,85.44
2023-03-26T13:05:39.375Z,81.47
2023-03-26T13:06:59.947Z,84.32
2023-03-26T13:07:40.366Z,84.46
2023-03-26T13:08:39.390Z,84.52
2023-03-26T13:10:39.444Z,80.35
2023-03-26T13:12:40.376Z,87.01
2023-03-26T13:15:39.437Z,86.37
2023-03-26T13:18:39.455Z,76.96
2023-03-26T13:19:39.525Z,80.16
2023-03-26T13:20:39.590Z,81.42
2023-03-26T13:21:39.671Z,86.08
2023-03-26T13:22:39.709Z,87.15
2023-03-26T13:23:39.742Z,79.95
2023-03-26T13:24:39.804Z,71.23
2023-03-26T13:25:39.868Z,60.27
2023-03-26T13:26:39.917Z,47.85
2023-03-26T13:27:39.990Z,44.64
2023-03-26T13:28:40.021Z,51.62
2023-03-26T13:29:40.084Z,56.00
2023-03-26T13:30:40.183Z,57.62
2023-03-26T13:31:40.171Z,49.30
2023-03-26T13:32:40.285Z,49.44
2023-03-26T13:33:40.321Z,54.40
2023-03-26T13:34:40.340Z,59.20
2023-03-26T13:35:40.474Z,57.96
2023-03-26T13:36:40.556Z,58.93
2023-03-26T13:37:40.497Z,56.55
2023-03-26T13:38:40.524Z,52.66
2023-03-26T13:39:40.556Z,51.71
2023-03-26T13:40:40.600Z,53.09
2023-03-26T13:41:40.647Z,54.01
2023-03-26T13:42:40.675Z,57.28
2023-03-26T13:43:40.697Z,50.17
2023-03-26T13:44:40.727Z,51.54
2023-03-26T13:45:40.796Z,54.55
2023-03-26T13:46:40.973Z,56.24
2023-03-26T13:47:40.881Z,58.10
2023-03-26T13:48:40.897Z,59.63
2023-03-26T13:49:40.968Z,62.93
2023-03-26T13:50:41.051Z,63.22
2023-03-26T13:51:41.086Z,67.63
2023-03-26T13:52:41.125Z,64.58
2023-03-26T13:53:41.196Z,66.59
2023-03-26T13:54:41.289Z,66.42
2023-03-26T13:55:41.319Z,67.07
2023-03-26T13:56:43.282Z,70.15
2023-03-26T13:57:41.425Z,69.35
2023-03-26T13:58:41.493Z,76.34
2023-03-26T13:59:41.565Z,74.99
2023-03-26T14:00:41.577Z,75.05
2023-03-26T14:01:41.696Z,79.22
2023-03-26T14:02:41.739Z,78.04
2023-03-26T14:03:41.754Z,69.61
2023-03-26T14:04:41.752Z,74.59
2023-03-26T14:05:41.835Z,76.64
2023-03-26T14:06:42.448Z,75.58
2023-03-26T14:14:42.339Z,75.63
2023-03-26T14:15:42.414Z,78.95
2023-03-26T14:16:42.452Z,75.03
2023-03-26T14:17:42.505Z,76.91
2023-03-26T14:18:42.534Z,80.10
2023-03-26T14:19:42.594Z,80.16
2023-03-26T14:20:42.596Z,74.08
2023-03-26T14:21:42.629Z,75.54
2023-03-26T14:22:42.635Z,76.56
2023-03-26T14:23:42.692Z,77.26
2023-03-26T14:24:42.715Z,78.55
2023-03-26T14:25:42.773Z,80.92
2023-03-26T14:26:42.821Z,80.21
2023-03-26T14:27:42.869Z,77.38
2023-03-26T14:28:42.898Z,77.87
2023-03-26T14:29:57.170Z,79.73
2023-03-26T14:30:44.310Z,80.00
2023-03-26T14:31:43.274Z,80.00
2023-03-26T14:39:43.000Z,95.24
2023-03-26T14:40:43.075Z,90.97
2023-03-26T14:41:43.139Z,94.26
2023-03-26T14:42:43.195Z,93.71
2023-03-26T14:43:43.194Z,96.29
2023-03-26T14:44:48.363Z,95.41
2023-03-26T14:45:44.249Z,95.76
2023-03-26T14:52:43.299Z,97.58
2023-03-26T14:53:43.350Z,97.24
2023-03-26T14:58:43.431Z,106.14
2023-03-26T14:59:43.467Z,106.60
2023-03-26T15:00:43.568Z,108.46
2023-03-26T15:01:43.616Z,114.07
2023-03-26T15:02:43.675Z,110.17
2023-03-26T15:03:43.702Z,106.82
2023-03-26T15:04:43.768Z,107.76
2023-03-26T15:05:43.844Z,109.20
2023-03-26T15:06:43.898Z,110.56
2023-03-26T15:07:43.944Z,105.75
2023-03-26T15:08:44.037Z,112.15
2023-03-26T15:09:44.076Z,115.43
2023-03-26T15:10:44.113Z,114.92
2023-03-26T15:11:44.164Z,117.48
2023-03-26T15:12:44.223Z,118.80
2023-03-26T15:13:44.267Z,121.32
2023-03-26T15:14:44.372Z,121.24
2023-03-26T15:18:44.479Z,112.79
2023-03-26T15:19:44.549Z,104.76
2023-03-26T15:20:44.600Z,104.25
2023-03-26T15:21:44.627Z,103.77
2023-03-26T15:22:44.645Z,105.55
2023-03-26T15:23:44.693Z,101.96
2023-03-26T15:24:44.763Z,96.83
2023-03-26T15:25:44.799Z,93.61
2023-03-26T15:26:44.864Z,95.88
2023-03-26T15:27:44.872Z,95.60
2023-03-26T15:28:44.882Z,94.22
2023-03-26T15:29:44.963Z,94.53
2023-03-26T15:30:44.965Z,96.14
2023-03-26T15:31:45.043Z,101.29
2023-03-26T15:32:45.077Z,103.06
2023-03-26T15:33:45.121Z,101.23
2023-03-26T15:34:45.127Z,105.27
2023-03-26T15:35:45.154Z,103.87
2023-03-26T15:36:45.244Z,103.86
2023-03-26T15:37:45.281Z,101.77
2023-03-26T15:38:45.285Z,103.59
2023-03-26T15:39:59.961Z,108.75
2023-03-26T15:40:46.382Z,108.85
2023-03-26T15:46:45.410Z,100.08
2023-03-26T15:47:45.466Z,101.36
2023-03-26T15:48:45.420Z,101.71
2023-03-26T15:49:45.434Z,101.35
2023-03-26T15:53:45.469Z,90.11
2023-03-26T15:54:45.509Z,95.14
2023-03-26T15:55:45.544Z,97.39
2023-03-26T15:56:45.623Z,98.77
2023-03-26T15:57:45.653Z,104.42
2023-03-26T15:58:45.708Z,106.50
2023-03-26T15:59:45.812Z,103.29
2023-03-26T16:00:45.821Z,116.81
2023-03-26T16:01:45.964Z,113.94
2023-03-26T16:02:45.973Z,114.31
2023-03-26T16:03:46.004Z,116.52
2023-03-26T16:04:50.641Z,121.47
2023-03-26T16:05:47.077Z,121.78
2023-03-26T16:06:46.102Z,122.03
2023-03-26T16:07:46.097Z,121.52
2023-03-26T16:08:46.137Z,121.88
2023-03-26T16:09:46.151Z,131.25
2023-03-26T16:12:46.161Z,124.17
2023-03-26T16:13:46.190Z,134.67
2023-03-26T16:22:46.545Z,132.72
2023-03-26T16:23:47.183Z,139.93
2023-03-26T16:24:46.669Z,136.46
2023-03-26T16:25:46.671Z,137.29
2023-03-26T16:26:46.707Z,139.18
2023-03-26T16:27:46.744Z,143.59
2023-03-26T16:28:46.814Z,147.51
2023-03-26T16:29:46.832Z,151.79
2023-03-26T16:30:46.937Z,148.58
2023-03-26T16:31:46.954Z,141.90
2023-03-26T16:32:47.043Z,147.23
2023-03-26T16:33:47.004Z,139.93
2023-03-26T16:34:47.063Z,133.04
2023-03-26T16:35:47.123Z,131.10
2023-03-26T16:36:47.124Z,130.56
2023-03-26T16:37:47.201Z,134.44
2023-03-26T16:38:47.219Z,141.20
2023-03-26T16:39:47.259Z,142.94
2023-03-26T16:47:47.500Z,152.11
2023-03-26T16:48:47.515Z,151.06
2023-03-26T16:49:47.575Z,154.14
2023-03-26T16:50:48.615Z,154.36
2023-03-26T17:00:05.102Z,173.17
2023-03-26T17:00:48.730Z,173.53
2023-03-26T17:10:47.871Z,197.45
2023-03-26T17:12:47.950Z,201.15
2023-03-26T17:14:47.869Z,201.64
2023-03-26T17:15:47.918Z,203.74
2023-03-26T17:16:47.932Z,204.78
2023-03-26T17:17:47.965Z,201.29
2023-03-26T17:18:48.098Z,206.73
2023-03-26T17:19:48.153Z,204.15
2023-03-26T17:20:48.050Z,204.95
2023-03-26T17:21:48.093Z,204.75
2023-03-26T17:25:48.169Z,203.46
2023-03-26T17:26:48.249Z,207.58
2023-03-26T17:27:48.286Z,205.79
2023-03-26T17:28:50.331Z,207.77